sensor_id;sensor_type;location;lat;lon;timestamp;P1;durP1;ratioP1;P2;durP2;ratioP2
5121;SDS011;2563;52.242;7.956;2024-03-06T00:01:52;38.10;;;17.40;;
5121;SDS011;2563;52.242;7.956;2024-03-06T00:04:18;41.47;;;18.17;;
5121;SDS011;2563;52.242;7.956;2024-03-06T00:06:43;37.87;;;16.37;;
5121;SDS011;2563;52.242;7.956;2024-03-06T00:09:08;48.57;;;17.83;;
5121;SDS011;2563;52.242;7.956;2024-03-06T00:11:34;37.80;;;16.90;;
5121;SDS011;2563;52.242;7.956;2024-03-06T00:14:02;38.60;;;16.80;;
5121;SDS011;2563;52.242;7.956;2024-03-06T00:16:30;38.93;;;18.20;;
5121;SDS011;2563;52.242;7.956;2024-03-06T00:18:55;34.13;;;16.43;;
5121;SDS011;2563;52.242;7.956;2024-03-06T00:21:21;39.73;;;16.37;;
5121;SDS011;2563;52.242;7.956;2024-03-06T00:23:46;37.07;;;16.50;;
5121;SDS011;2563;52.242;7.956;2024-03-06T00:26:11;36.60;;;16.30;;
5121;SDS011;2563;52.242;7.956;2024-03-06T00:28:38;35.50;;;16.97;;
5121;SDS011;2563;52.242;7.956;2024-03-06T00:31:07;39.70;;;16.53;;
5121;SDS011;2563;52.242;7.956;2024-03-06T00:33:32;43.27;;;16.87;;
5121;SDS011;2563;52.242;7.956;2024-03-06T00:35:57;46.33;;;17.23;;
5121;SDS011;2563;52.242;7.956;2024-03-06T00:38:23;43.50;;;17.13;;
5121;SDS011;2563;52.242;7.956;2024-03-06T00:40:48;37.40;;;17.10;;
5121;SDS011;2563;52.242;7.956;2024-03-06T00:43:14;37.30;;;16.60;;
5121;SDS011;2563;52.242;7.956;2024-03-06T00:45:39;41.43;;;16.63;;
5121;SDS011;2563;52.242;7.956;2024-03-06T00:48:05;40.97;;;17.70;;
5121;SDS011;2563;52.242;7.956;2024-03-06T00:50:31;36.23;;;16.23;;
5121;SDS011;2563;52.242;7.956;2024-03-06T00:52:57;39.57;;;17.93;;
5121;SDS011;2563;52.242;7.956;2024-03-06T00:55:22;40.70;;;17.03;;
5121;SDS011;2563;52.242;7.956;2024-03-06T00:57:50;37.53;;;17.53;;
5121;SDS011;2563;52.242;7.956;2024-03-06T01:00:16;47.33;;;17.17;;
5121;SDS011;2563;52.242;7.956;2024-03-06T01:02:42;40.33;;;16.67;;
5121;SDS011;2563;52.242;7.956;2024-03-06T01:05:07;37.20;;;16.00;;
5121;SDS011;2563;52.242;7.956;2024-03-06T01:07:34;41.97;;;16.33;;
5121;SDS011;2563;52.242;7.956;2024-03-06T01:10:02;39.33;;;17.40;;
5121;SDS011;2563;52.242;7.956;2024-03-06T01:12:27;41.63;;;16.90;;
5121;SDS011;2563;52.242;7.956;2024-03-06T01:14:53;36.43;;;16.80;;
5121;SDS011;2563;52.242;7.956;2024-03-06T01:17:19;37.10;;;17.27;;
5121;SDS011;2563;52.242;7.956;2024-03-06T01:19:44;41.83;;;17.87;;
5121;SDS011;2563;52.242;7.956;2024-03-06T01:22:10;35.37;;;16.00;;
5121;SDS011;2563;52.242;7.956;2024-03-06T01:24:35;38.27;;;16.97;;
5121;SDS011;2563;52.242;7.956;2024-03-06T01:27:01;39.50;;;17.23;;
5121;SDS011;2563;52.242;7.956;2024-03-06T01:29:28;47.40;;;18.03;;
5121;SDS011;2563;52.242;7.956;2024-03-06T01:31:53;43.37;;;17.10;;
5121;SDS011;2563;52.242;7.956;2024-03-06T01:34:19;39.50;;;16.17;;
5121;SDS011;2563;52.242;7.956;2024-03-06T01:36:44;40.23;;;18.60;;
5121;SDS011;2563;52.242;7.956;2024-03-06T01:39:10;42.27;;;17.60;;
5121;SDS011;2563;52.242;7.956;2024-03-06T01:41:36;37.97;;;17.27;;
5121;SDS011;2563;52.242;7.956;2024-03-06T01:44:01;47.30;;;17.77;;
5121;SDS011;2563;52.242;7.956;2024-03-06T01:46:28;44.03;;;19.90;;
5121;SDS011;2563;52.242;7.956;2024-03-06T01:48:54;43.17;;;18.17;;
5121;SDS011;2563;52.242;7.956;2024-03-06T01:51:19;42.10;;;17.23;;
5121;SDS011;2563;52.242;7.956;2024-03-06T01:53:45;40.40;;;18.90;;
5121;SDS011;2563;52.242;7.956;2024-03-06T01:56:10;39.80;;;17.90;;
5121;SDS011;2563;52.242;7.956;2024-03-06T01:58:39;45.80;;;17.83;;
5121;SDS011;2563;52.242;7.956;2024-03-06T02:01:06;42.00;;;18.10;;
5121;SDS011;2563;52.242;7.956;2024-03-06T02:03:32;41.60;;;17.17;;
5121;SDS011;2563;52.242;7.956;2024-03-06T02:05:58;39.20;;;17.73;;
5121;SDS011;2563;52.242;7.956;2024-03-06T02:08:27;42.00;;;17.93;;
5121;SDS011;2563;52.242;7.956;2024-03-06T02:10:52;45.20;;;18.47;;
5121;SDS011;2563;52.242;7.956;2024-03-06T02:13:18;43.70;;;19.23;;
5121;SDS011;2563;52.242;7.956;2024-03-06T02:15:44;49.63;;;19.60;;
5121;SDS011;2563;52.242;7.956;2024-03-06T02:18:10;46.73;;;18.53;;
5121;SDS011;2563;52.242;7.956;2024-03-06T02:20:39;42.17;;;19.23;;
5121;SDS011;2563;52.242;7.956;2024-03-06T02:23:07;47.17;;;20.07;;
5121;SDS011;2563;52.242;7.956;2024-03-06T02:25:32;42.33;;;19.00;;
5121;SDS011;2563;52.242;7.956;2024-03-06T02:27:58;42.23;;;19.20;;
5121;SDS011;2563;52.242;7.956;2024-03-06T02:30:24;43.03;;;18.87;;
5121;SDS011;2563;52.242;7.956;2024-03-06T02:32:49;41.27;;;18.17;;
5121;SDS011;2563;52.242;7.956;2024-03-06T02:35:14;51.70;;;19.90;;
5121;SDS011;2563;52.242;7.956;2024-03-06T02:37:43;43.47;;;20.43;;
5121;SDS011;2563;52.242;7.956;2024-03-06T02:40:09;47.80;;;20.30;;
5121;SDS011;2563;52.242;7.956;2024-03-06T02:42:35;51.63;;;19.20;;
5121;SDS011;2563;52.242;7.956;2024-03-06T02:45:03;49.83;;;20.57;;
5121;SDS011;2563;52.242;7.956;2024-03-06T02:47:30;46.03;;;20.00;;
5121;SDS011;2563;52.242;7.956;2024-03-06T02:49:55;47.10;;;19.50;;
5121;SDS011;2563;52.242;7.956;2024-03-06T02:52:21;44.43;;;19.90;;
5121;SDS011;2563;52.242;7.956;2024-03-06T02:54:46;49.47;;;19.53;;
5121;SDS011;2563;52.242;7.956;2024-03-06T02:57:11;50.53;;;19.47;;
5121;SDS011;2563;52.242;7.956;2024-03-06T02:59:39;50.50;;;19.13;;
5121;SDS011;2563;52.242;7.956;2024-03-06T03:02:05;43.00;;;19.90;;
5121;SDS011;2563;52.242;7.956;2024-03-06T03:04:30;43.57;;;19.47;;
5121;SDS011;2563;52.242;7.956;2024-03-06T03:06:56;51.90;;;20.60;;
5121;SDS011;2563;52.242;7.956;2024-03-06T03:09:22;51.37;;;20.70;;
5121;SDS011;2563;52.242;7.956;2024-03-06T03:11:48;47.10;;;20.67;;
5121;SDS011;2563;52.242;7.956;2024-03-06T03:14:13;46.17;;;21.07;;
5121;SDS011;2563;52.242;7.956;2024-03-06T03:16:39;44.40;;;19.50;;
5121;SDS011;2563;52.242;7.956;2024-03-06T03:19:04;46.60;;;20.47;;
5121;SDS011;2563;52.242;7.956;2024-03-06T03:21:30;53.10;;;20.33;;
5121;SDS011;2563;52.242;7.956;2024-03-06T03:23:55;40.20;;;19.40;;
5121;SDS011;2563;52.242;7.956;2024-03-06T03:26:21;42.07;;;17.73;;
5121;SDS011;2563;52.242;7.956;2024-03-06T03:28:46;43.70;;;19.87;;
5121;SDS011;2563;52.242;7.956;2024-03-06T03:31:11;41.70;;;18.53;;
5121;SDS011;2563;52.242;7.956;2024-03-06T03:33:40;45.73;;;18.93;;
5121;SDS011;2563;52.242;7.956;2024-03-06T03:36:06;42.30;;;18.00;;
5121;SDS011;2563;52.242;7.956;2024-03-06T03:38:32;56.17;;;21.13;;
5121;SDS011;2563;52.242;7.956;2024-03-06T03:41:00;44.50;;;19.40;;
5121;SDS011;2563;52.242;7.956;2024-03-06T03:43:26;47.50;;;19.93;;
5121;SDS011;2563;52.242;7.956;2024-03-06T03:45:51;51.30;;;19.40;;
5121;SDS011;2563;52.242;7.956;2024-03-06T03:48:16;58.83;;;21.30;;
5121;SDS011;2563;52.242;7.956;2024-03-06T03:50:42;40.87;;;18.00;;
5121;SDS011;2563;52.242;7.956;2024-03-06T03:53:07;48.03;;;20.57;;
5121;SDS011;2563;52.242;7.956;2024-03-06T03:55:33;42.63;;;18.37;;
5121;SDS011;2563;52.242;7.956;2024-03-06T03:57:58;45.80;;;18.67;;
5121;SDS011;2563;52.242;7.956;2024-03-06T04:00:24;49.97;;;20.17;;
5121;SDS011;2563;52.242;7.956;2024-03-06T04:02:49;43.80;;;17.20;;
5121;SDS011;2563;52.242;7.956;2024-03-06T04:05:15;56.97;;;21.77;;
5121;SDS011;2563;52.242;7.956;2024-03-06T04:07:41;39.07;;;17.93;;
5121;SDS011;2563;52.242;7.956;2024-03-06T04:10:06;48.10;;;17.97;;
5121;SDS011;2563;52.242;7.956;2024-03-06T04:12:36;45.27;;;18.03;;
5121;SDS011;2563;52.242;7.956;2024-03-06T04:15:02;38.70;;;17.67;;
5121;SDS011;2563;52.242;7.956;2024-03-06T04:17:29;45.70;;;18.80;;
5121;SDS011;2563;52.242;7.956;2024-03-06T04:19:54;46.00;;;18.00;;
5121;SDS011;2563;52.242;7.956;2024-03-06T04:22:20;46.00;;;18.60;;
5121;SDS011;2563;52.242;7.956;2024-03-06T04:24:45;39.87;;;17.30;;
5121;SDS011;2563;52.242;7.956;2024-03-06T04:27:11;48.17;;;16.93;;
5121;SDS011;2563;52.242;7.956;2024-03-06T04:29:37;40.63;;;17.80;;
5121;SDS011;2563;52.242;7.956;2024-03-06T04:32:03;41.63;;;16.83;;
5121;SDS011;2563;52.242;7.956;2024-03-06T04:34:29;42.80;;;17.20;;
5121;SDS011;2563;52.242;7.956;2024-03-06T04:36:54;43.33;;;18.17;;
5121;SDS011;2563;52.242;7.956;2024-03-06T04:39:19;45.73;;;16.70;;
5121;SDS011;2563;52.242;7.956;2024-03-06T04:41:45;44.73;;;18.03;;
5121;SDS011;2563;52.242;7.956;2024-03-06T04:44:10;31.73;;;14.10;;
5121;SDS011;2563;52.242;7.956;2024-03-06T04:46:35;35.73;;;15.73;;
5121;SDS011;2563;52.242;7.956;2024-03-06T04:49:01;39.53;;;15.93;;
5121;SDS011;2563;52.242;7.956;2024-03-06T04:51:27;44.03;;;17.77;;
5121;SDS011;2563;52.242;7.956;2024-03-06T04:53:52;41.33;;;17.67;;
5121;SDS011;2563;52.242;7.956;2024-03-06T04:56:17;38.60;;;15.60;;
5121;SDS011;2563;52.242;7.956;2024-03-06T04:58:47;41.77;;;16.93;;
5121;SDS011;2563;52.242;7.956;2024-03-06T05:01:12;43.10;;;15.20;;
5121;SDS011;2563;52.242;7.956;2024-03-06T05:03:38;41.30;;;15.20;;
5121;SDS011;2563;52.242;7.956;2024-03-06T05:06:04;33.23;;;14.37;;
5121;SDS011;2563;52.242;7.956;2024-03-06T05:08:30;41.67;;;15.70;;
5121;SDS011;2563;52.242;7.956;2024-03-06T05:10:56;32.00;;;14.67;;
5121;SDS011;2563;52.242;7.956;2024-03-06T05:13:21;31.93;;;14.77;;
5121;SDS011;2563;52.242;7.956;2024-03-06T05:15:47;33.53;;;14.20;;
5121;SDS011;2563;52.242;7.956;2024-03-06T05:18:13;29.37;;;13.33;;
5121;SDS011;2563;52.242;7.956;2024-03-06T05:20:38;34.53;;;15.13;;
5121;SDS011;2563;52.242;7.956;2024-03-06T05:23:03;40.93;;;13.87;;
5121;SDS011;2563;52.242;7.956;2024-03-06T05:25:29;35.23;;;14.87;;
5121;SDS011;2563;52.242;7.956;2024-03-06T05:27:54;44.83;;;13.50;;
5121;SDS011;2563;52.242;7.956;2024-03-06T05:30:20;34.10;;;14.90;;
5121;SDS011;2563;52.242;7.956;2024-03-06T05:32:45;41.77;;;15.47;;
5121;SDS011;2563;52.242;7.956;2024-03-06T05:35:12;43.47;;;15.97;;
5121;SDS011;2563;52.242;7.956;2024-03-06T05:37:37;34.60;;;14.50;;
5121;SDS011;2563;52.242;7.956;2024-03-06T05:40:03;36.83;;;14.57;;
5121;SDS011;2563;52.242;7.956;2024-03-06T05:42:32;43.17;;;14.70;;
5121;SDS011;2563;52.242;7.956;2024-03-06T05:44:57;38.97;;;14.50;;
5121;SDS011;2563;52.242;7.956;2024-03-06T05:47:29;44.40;;;14.13;;
5121;SDS011;2563;52.242;7.956;2024-03-06T05:49:56;44.33;;;14.87;;
5121;SDS011;2563;52.242;7.956;2024-03-06T05:52:21;39.50;;;16.33;;
5121;SDS011;2563;52.242;7.956;2024-03-06T05:54:47;36.77;;;14.37;;
5121;SDS011;2563;52.242;7.956;2024-03-06T05:57:12;41.20;;;15.93;;
5121;SDS011;2563;52.242;7.956;2024-03-06T05:59:37;36.00;;;14.47;;
5121;SDS011;2563;52.242;7.956;2024-03-06T06:02:05;40.17;;;16.13;;
5121;SDS011;2563;52.242;7.956;2024-03-06T06:04:31;40.53;;;15.90;;
5121;SDS011;2563;52.242;7.956;2024-03-06T06:06:56;37.00;;;16.47;;
5121;SDS011;2563;52.242;7.956;2024-03-06T06:09:21;43.93;;;15.70;;
5121;SDS011;2563;52.242;7.956;2024-03-06T06:11:47;40.13;;;14.33;;
5121;SDS011;2563;52.242;7.956;2024-03-06T06:14:12;35.63;;;14.40;;
5121;SDS011;2563;52.242;7.956;2024-03-06T06:16:38;34.07;;;14.50;;
5121;SDS011;2563;52.242;7.956;2024-03-06T06:19:05;37.00;;;15.53;;
5121;SDS011;2563;52.242;7.956;2024-03-06T06:21:31;49.27;;;15.20;;
5121;SDS011;2563;52.242;7.956;2024-03-06T06:23:58;34.73;;;15.40;;
5121;SDS011;2563;52.242;7.956;2024-03-06T06:26:23;45.03;;;15.63;;
5121;SDS011;2563;52.242;7.956;2024-03-06T06:28:49;40.07;;;15.17;;
5121;SDS011;2563;52.242;7.956;2024-03-06T06:31:14;41.20;;;18.87;;
5121;SDS011;2563;52.242;7.956;2024-03-06T06:33:40;33.83;;;13.90;;
5121;SDS011;2563;52.242;7.956;2024-03-06T06:36:05;48.00;;;15.90;;
5121;SDS011;2563;52.242;7.956;2024-03-06T06:38:31;58.70;;;16.00;;
5121;SDS011;2563;52.242;7.956;2024-03-06T06:40:56;53.00;;;16.57;;
5121;SDS011;2563;52.242;7.956;2024-03-06T06:43:21;46.20;;;17.20;;
5121;SDS011;2563;52.242;7.956;2024-03-06T06:45:47;39.37;;;16.70;;
5121;SDS011;2563;52.242;7.956;2024-03-06T06:48:12;40.30;;;15.03;;
5121;SDS011;2563;52.242;7.956;2024-03-06T06:50:38;43.90;;;16.10;;
5121;SDS011;2563;52.242;7.956;2024-03-06T06:53:03;51.67;;;16.27;;
5121;SDS011;2563;52.242;7.956;2024-03-06T06:55:29;43.50;;;15.00;;
5121;SDS011;2563;52.242;7.956;2024-03-06T06:57:55;38.97;;;15.27;;
5121;SDS011;2563;52.242;7.956;2024-03-06T07:00:20;41.93;;;16.93;;
5121;SDS011;2563;52.242;7.956;2024-03-06T07:02:47;39.93;;;15.53;;
5121;SDS011;2563;52.242;7.956;2024-03-06T07:05:14;38.73;;;17.40;;
5121;SDS011;2563;52.242;7.956;2024-03-06T07:07:39;52.10;;;16.10;;
5121;SDS011;2563;52.242;7.956;2024-03-06T07:10:05;40.03;;;15.83;;
5121;SDS011;2563;52.242;7.956;2024-03-06T07:12:31;38.30;;;16.00;;
5121;SDS011;2563;52.242;7.956;2024-03-06T07:14:58;43.40;;;15.27;;
5121;SDS011;2563;52.242;7.956;2024-03-06T07:17:24;43.80;;;17.10;;
5121;SDS011;2563;52.242;7.956;2024-03-06T07:19:49;43.57;;;16.20;;
5121;SDS011;2563;52.242;7.956;2024-03-06T07:22:16;43.63;;;15.13;;
5121;SDS011;2563;52.242;7.956;2024-03-06T07:24:41;39.70;;;14.40;;
5121;SDS011;2563;52.242;7.956;2024-03-06T07:27:07;44.80;;;15.83;;
5121;SDS011;2563;52.242;7.956;2024-03-06T07:29:36;38.40;;;16.70;;
5121;SDS011;2563;52.242;7.956;2024-03-06T07:32:02;44.07;;;16.33;;
5121;SDS011;2563;52.242;7.956;2024-03-06T07:34:28;33.40;;;15.07;;
5121;SDS011;2563;52.242;7.956;2024-03-06T07:36:54;36.77;;;16.60;;
5121;SDS011;2563;52.242;7.956;2024-03-06T07:39:20;36.23;;;15.73;;
5121;SDS011;2563;52.242;7.956;2024-03-06T07:41:45;44.70;;;16.90;;
5121;SDS011;2563;52.242;7.956;2024-03-06T07:44:10;59.07;;;17.00;;
5121;SDS011;2563;52.242;7.956;2024-03-06T07:46:36;36.90;;;14.43;;
5121;SDS011;2563;52.242;7.956;2024-03-06T07:49:02;40.50;;;17.40;;
5121;SDS011;2563;52.242;7.956;2024-03-06T07:55:07;41.17;;;15.60;;
5121;SDS011;2563;52.242;7.956;2024-03-06T07:57:33;46.90;;;16.40;;
5121;SDS011;2563;52.242;7.956;2024-03-06T07:59:58;35.67;;;15.87;;
5121;SDS011;2563;52.242;7.956;2024-03-06T08:02:23;46.57;;;16.83;;
5121;SDS011;2563;52.242;7.956;2024-03-06T08:04:49;46.67;;;17.80;;
5121;SDS011;2563;52.242;7.956;2024-03-06T08:07:15;40.53;;;16.87;;
5121;SDS011;2563;52.242;7.956;2024-03-06T08:09:40;45.40;;;16.90;;
5121;SDS011;2563;52.242;7.956;2024-03-06T08:12:05;42.23;;;15.70;;
5121;SDS011;2563;52.242;7.956;2024-03-06T08:14:31;41.90;;;17.13;;
5121;SDS011;2563;52.242;7.956;2024-03-06T08:16:56;40.80;;;15.87;;
5121;SDS011;2563;52.242;7.956;2024-03-06T08:19:22;37.03;;;15.77;;
5121;SDS011;2563;52.242;7.956;2024-03-06T08:21:49;41.47;;;16.40;;
5121;SDS011;2563;52.242;7.956;2024-03-06T08:24:15;50.87;;;15.90;;
5121;SDS011;2563;52.242;7.956;2024-03-06T08:26:42;43.87;;;15.90;;
5121;SDS011;2563;52.242;7.956;2024-03-06T08:29:07;48.63;;;16.83;;
5121;SDS011;2563;52.242;7.956;2024-03-06T08:31:33;40.80;;;16.63;;
5121;SDS011;2563;52.242;7.956;2024-03-06T08:33:58;43.03;;;17.10;;
5121;SDS011;2563;52.242;7.956;2024-03-06T08:36:23;48.57;;;19.13;;
5121;SDS011;2563;52.242;7.956;2024-03-06T08:38:49;40.87;;;16.33;;
5121;SDS011;2563;52.242;7.956;2024-03-06T08:41:14;44.03;;;17.07;;
5121;SDS011;2563;52.242;7.956;2024-03-06T08:43:40;40.10;;;16.80;;
5121;SDS011;2563;52.242;7.956;2024-03-06T08:46:05;47.10;;;16.87;;
5121;SDS011;2563;52.242;7.956;2024-03-06T08:48:30;45.47;;;16.53;;
5121;SDS011;2563;52.242;7.956;2024-03-06T08:50:56;42.23;;;16.93;;
5121;SDS011;2563;52.242;7.956;2024-03-06T08:53:21;42.57;;;17.30;;
5121;SDS011;2563;52.242;7.956;2024-03-06T08:55:46;52.13;;;20.03;;
5121;SDS011;2563;52.242;7.956;2024-03-06T08:58:12;44.07;;;17.27;;
5121;SDS011;2563;52.242;7.956;2024-03-06T09:00:39;46.00;;;17.30;;
5121;SDS011;2563;52.242;7.956;2024-03-06T09:03:04;49.30;;;18.00;;
5121;SDS011;2563;52.242;7.956;2024-03-06T09:05:30;52.07;;;18.63;;
5121;SDS011;2563;52.242;7.956;2024-03-06T09:07:55;46.00;;;18.90;;
5121;SDS011;2563;52.242;7.956;2024-03-06T09:10:22;50.43;;;20.30;;
5121;SDS011;2563;52.242;7.956;2024-03-06T09:12:48;51.53;;;20.97;;
5121;SDS011;2563;52.242;7.956;2024-03-06T09:15:14;43.43;;;18.23;;
5121;SDS011;2563;52.242;7.956;2024-03-06T09:17:41;51.70;;;19.73;;
5121;SDS011;2563;52.242;7.956;2024-03-06T09:20:06;43.17;;;18.03;;
5121;SDS011;2563;52.242;7.956;2024-03-06T09:22:38;48.40;;;19.17;;
5121;SDS011;2563;52.242;7.956;2024-03-06T09:25:05;52.13;;;19.67;;
5121;SDS011;2563;52.242;7.956;2024-03-06T09:27:31;50.77;;;19.30;;
5121;SDS011;2563;52.242;7.956;2024-03-06T09:29:57;61.67;;;22.30;;
5121;SDS011;2563;52.242;7.956;2024-03-06T09:32:22;59.37;;;19.83;;
5121;SDS011;2563;52.242;7.956;2024-03-06T09:34:48;68.43;;;21.90;;
5121;SDS011;2563;52.242;7.956;2024-03-06T09:37:14;48.60;;;19.83;;
5121;SDS011;2563;52.242;7.956;2024-03-06T09:39:39;49.47;;;21.00;;
5121;SDS011;2563;52.242;7.956;2024-03-06T09:42:05;67.43;;;19.93;;
5121;SDS011;2563;52.242;7.956;2024-03-06T09:44:31;49.97;;;19.67;;
5121;SDS011;2563;52.242;7.956;2024-03-06T09:46:57;47.87;;;20.10;;
5121;SDS011;2563;52.242;7.956;2024-03-06T09:49:28;54.73;;;18.80;;
5121;SDS011;2563;52.242;7.956;2024-03-06T09:51:54;50.30;;;19.23;;
5121;SDS011;2563;52.242;7.956;2024-03-06T09:54:21;52.97;;;19.57;;
5121;SDS011;2563;52.242;7.956;2024-03-06T09:56:49;50.10;;;20.03;;
5121;SDS011;2563;52.242;7.956;2024-03-06T09:59:14;53.67;;;20.30;;
5121;SDS011;2563;52.242;7.956;2024-03-06T10:01:45;51.97;;;19.20;;
5121;SDS011;2563;52.242;7.956;2024-03-06T10:04:18;53.50;;;21.23;;
5121;SDS011;2563;52.242;7.956;2024-03-06T10:06:45;58.33;;;20.90;;
5121;SDS011;2563;52.242;7.956;2024-03-06T10:09:11;63.47;;;21.70;;
5121;SDS011;2563;52.242;7.956;2024-03-06T10:11:40;59.13;;;21.87;;
5121;SDS011;2563;52.242;7.956;2024-03-06T10:14:06;59.00;;;21.27;;
5121;SDS011;2563;52.242;7.956;2024-03-06T10:16:31;63.63;;;21.97;;
5121;SDS011;2563;52.242;7.956;2024-03-06T10:18:58;60.00;;;19.80;;
5121;SDS011;2563;52.242;7.956;2024-03-06T10:21:41;58.30;;;22.83;;
5121;SDS011;2563;52.242;7.956;2024-03-06T10:24:09;66.43;;;21.37;;
5121;SDS011;2563;52.242;7.956;2024-03-06T10:26:34;77.27;;;22.50;;
5121;SDS011;2563;52.242;7.956;2024-03-06T10:29:00;62.37;;;21.87;;
5121;SDS011;2563;52.242;7.956;2024-03-06T10:31:27;58.20;;;22.87;;
5121;SDS011;2563;52.242;7.956;2024-03-06T10:33:55;63.23;;;24.10;;
5121;SDS011;2563;52.242;7.956;2024-03-06T10:36:20;67.00;;;24.70;;
5121;SDS011;2563;52.242;7.956;2024-03-06T10:38:46;71.50;;;25.90;;
5121;SDS011;2563;52.242;7.956;2024-03-06T10:41:16;60.57;;;23.57;;
5121;SDS011;2563;52.242;7.956;2024-03-06T10:43:47;63.27;;;24.30;;
5121;SDS011;2563;52.242;7.956;2024-03-06T10:46:15;64.73;;;25.03;;
5121;SDS011;2563;52.242;7.956;2024-03-06T10:48:44;59.93;;;23.63;;
5121;SDS011;2563;52.242;7.956;2024-03-06T10:51:12;58.13;;;24.07;;
5121;SDS011;2563;52.242;7.956;2024-03-06T10:53:39;58.40;;;22.30;;
5121;SDS011;2563;52.242;7.956;2024-03-06T10:56:08;66.33;;;25.60;;
5121;SDS011;2563;52.242;7.956;2024-03-06T10:58:34;59.97;;;22.73;;
5121;SDS011;2563;52.242;7.956;2024-03-06T11:01:01;61.53;;;23.13;;
5121;SDS011;2563;52.242;7.956;2024-03-06T11:03:28;54.40;;;22.37;;
5121;SDS011;2563;52.242;7.956;2024-03-06T11:05:56;58.67;;;23.03;;
5121;SDS011;2563;52.242;7.956;2024-03-06T11:08:21;47.93;;;21.23;;
5121;SDS011;2563;52.242;7.956;2024-03-06T11:10:46;45.90;;;20.97;;
5121;SDS011;2563;52.242;7.956;2024-03-06T11:13:24;50.33;;;21.40;;
5121;SDS011;2563;52.242;7.956;2024-03-06T11:15:51;55.47;;;22.00;;
5121;SDS011;2563;52.242;7.956;2024-03-06T11:20:58;54.27;;;21.63;;
5121;SDS011;2563;52.242;7.956;2024-03-06T11:23:24;46.20;;;18.30;;
5121;SDS011;2563;52.242;7.956;2024-03-06T11:28:16;44.40;;;19.30;;
5121;SDS011;2563;52.242;7.956;2024-03-06T11:30:46;46.40;;;19.53;;
5121;SDS011;2563;52.242;7.956;2024-03-06T11:33:14;50.53;;;19.30;;
5121;SDS011;2563;52.242;7.956;2024-03-06T11:35:43;42.13;;;18.70;;
5121;SDS011;2563;52.242;7.956;2024-03-06T11:38:29;48.33;;;20.87;;
5121;SDS011;2563;52.242;7.956;2024-03-06T11:40:55;42.37;;;18.50;;
5121;SDS011;2563;52.242;7.956;2024-03-06T11:43:27;47.73;;;18.57;;
5121;SDS011;2563;52.242;7.956;2024-03-06T11:45:53;37.67;;;18.50;;
5121;SDS011;2563;52.242;7.956;2024-03-06T11:48:18;42.77;;;19.70;;
5121;SDS011;2563;52.242;7.956;2024-03-06T11:50:46;50.50;;;19.80;;
5121;SDS011;2563;52.242;7.956;2024-03-06T11:53:13;36.10;;;16.40;;
5121;SDS011;2563;52.242;7.956;2024-03-06T11:55:39;49.87;;;18.87;;
5121;SDS011;2563;52.242;7.956;2024-03-06T11:58:04;44.47;;;17.63;;
5121;SDS011;2563;52.242;7.956;2024-03-06T12:00:30;46.80;;;18.90;;
5121;SDS011;2563;52.242;7.956;2024-03-06T12:02:55;44.67;;;18.90;;
5121;SDS011;2563;52.242;7.956;2024-03-06T12:05:22;43.07;;;17.63;;
5121;SDS011;2563;52.242;7.956;2024-03-06T12:07:49;34.47;;;15.07;;
5121;SDS011;2563;52.242;7.956;2024-03-06T12:10:18;46.20;;;18.87;;
5121;SDS011;2563;52.242;7.956;2024-03-06T12:12:44;46.07;;;19.30;;
5121;SDS011;2563;52.242;7.956;2024-03-06T12:15:10;41.10;;;18.07;;
5121;SDS011;2563;52.242;7.956;2024-03-06T12:17:46;40.23;;;18.30;;
5121;SDS011;2563;52.242;7.956;2024-03-06T12:20:13;38.70;;;17.07;;
5121;SDS011;2563;52.242;7.956;2024-03-06T12:25:10;31.30;;;15.93;;
5121;SDS011;2563;52.242;7.956;2024-03-06T12:27:44;45.70;;;19.00;;
5121;SDS011;2563;52.242;7.956;2024-03-06T12:30:10;50.50;;;20.83;;
5121;SDS011;2563;52.242;7.956;2024-03-06T12:32:38;48.10;;;19.90;;
5121;SDS011;2563;52.242;7.956;2024-03-06T12:35:03;46.53;;;19.93;;
5121;SDS011;2563;52.242;7.956;2024-03-06T12:37:29;56.00;;;20.43;;
5121;SDS011;2563;52.242;7.956;2024-03-06T12:39:58;51.97;;;21.60;;
5121;SDS011;2563;52.242;7.956;2024-03-06T12:42:24;56.10;;;23.10;;
5121;SDS011;2563;52.242;7.956;2024-03-06T12:44:50;65.93;;;22.80;;
5121;SDS011;2563;52.242;7.956;2024-03-06T12:47:15;62.47;;;23.00;;
5121;SDS011;2563;52.242;7.956;2024-03-06T12:49:41;52.00;;;22.20;;
5121;SDS011;2563;52.242;7.956;2024-03-06T12:52:06;59.30;;;23.80;;
5121;SDS011;2563;52.242;7.956;2024-03-06T12:54:32;47.30;;;20.40;;
5121;SDS011;2563;52.242;7.956;2024-03-06T12:56:57;60.57;;;22.30;;
5121;SDS011;2563;52.242;7.956;2024-03-06T12:59:23;48.37;;;21.90;;
5121;SDS011;2563;52.242;7.956;2024-03-06T13:01:48;55.13;;;20.77;;
5121;SDS011;2563;52.242;7.956;2024-03-06T13:04:14;52.07;;;21.73;;
5121;SDS011;2563;52.242;7.956;2024-03-06T13:06:39;45.60;;;19.40;;
5121;SDS011;2563;52.242;7.956;2024-03-06T13:09:07;51.67;;;20.50;;
5121;SDS011;2563;52.242;7.956;2024-03-06T13:11:33;54.13;;;21.83;;
5121;SDS011;2563;52.242;7.956;2024-03-06T13:13:58;40.43;;;19.10;;
5121;SDS011;2563;52.242;7.956;2024-03-06T13:16:25;50.83;;;19.10;;
5121;SDS011;2563;52.242;7.956;2024-03-06T13:18:51;46.50;;;18.50;;
5121;SDS011;2563;52.242;7.956;2024-03-06T13:21:18;53.53;;;19.90;;
5121;SDS011;2563;52.242;7.956;2024-03-06T13:23:44;47.77;;;20.50;;
5121;SDS011;2563;52.242;7.956;2024-03-06T13:26:09;48.10;;;18.53;;
5121;SDS011;2563;52.242;7.956;2024-03-06T13:28:35;47.53;;;19.57;;
5121;SDS011;2563;52.242;7.956;2024-03-06T13:31:00;48.43;;;20.20;;
5121;SDS011;2563;52.242;7.956;2024-03-06T13:33:26;47.33;;;18.83;;
5121;SDS011;2563;52.242;7.956;2024-03-06T13:35:53;53.27;;;20.10;;
5121;SDS011;2563;52.242;7.956;2024-03-06T13:38:19;51.97;;;20.67;;
5121;SDS011;2563;52.242;7.956;2024-03-06T13:40:44;48.23;;;20.00;;
5121;SDS011;2563;52.242;7.956;2024-03-06T13:43:09;51.03;;;19.73;;
5121;SDS011;2563;52.242;7.956;2024-03-06T13:45:35;55.73;;;20.00;;
5121;SDS011;2563;52.242;7.956;2024-03-06T13:48:02;48.77;;;19.63;;
5121;SDS011;2563;52.242;7.956;2024-03-06T13:50:29;44.13;;;20.17;;
5121;SDS011;2563;52.242;7.956;2024-03-06T13:52:54;55.17;;;19.27;;
5121;SDS011;2563;52.242;7.956;2024-03-06T13:55:20;49.73;;;20.07;;
5121;SDS011;2563;52.242;7.956;2024-03-06T13:57:45;48.67;;;20.10;;
5121;SDS011;2563;52.242;7.956;2024-03-06T14:00:12;56.67;;;20.23;;
5121;SDS011;2563;52.242;7.956;2024-03-06T14:02:42;45.70;;;20.40;;
5121;SDS011;2563;52.242;7.956;2024-03-06T14:05:07;49.90;;;19.43;;
5121;SDS011;2563;52.242;7.956;2024-03-06T14:07:33;55.93;;;22.20;;
5121;SDS011;2563;52.242;7.956;2024-03-06T14:09:59;43.73;;;19.23;;
5121;SDS011;2563;52.242;7.956;2024-03-06T14:12:24;50.50;;;19.37;;
5121;SDS011;2563;52.242;7.956;2024-03-06T14:14:50;49.23;;;18.53;;
5121;SDS011;2563;52.242;7.956;2024-03-06T14:17:15;51.17;;;21.77;;
5121;SDS011;2563;52.242;7.956;2024-03-06T14:19:40;56.37;;;21.30;;
5121;SDS011;2563;52.242;7.956;2024-03-06T14:22:09;55.10;;;20.83;;
5121;SDS011;2563;52.242;7.956;2024-03-06T14:24:35;70.53;;;26.17;;
5121;SDS011;2563;52.242;7.956;2024-03-06T14:27:03;70.77;;;26.47;;
5121;SDS011;2563;52.242;7.956;2024-03-06T14:29:32;71.57;;;24.60;;
5121;SDS011;2563;52.242;7.956;2024-03-06T14:31:57;59.30;;;21.53;;
5121;SDS011;2563;52.242;7.956;2024-03-06T14:34:23;47.17;;;19.13;;
5121;SDS011;2563;52.242;7.956;2024-03-06T14:36:52;43.67;;;18.93;;
5121;SDS011;2563;52.242;7.956;2024-03-06T14:39:18;47.80;;;19.40;;
5121;SDS011;2563;52.242;7.956;2024-03-06T14:41:46;46.30;;;18.70;;
5121;SDS011;2563;52.242;7.956;2024-03-06T14:44:12;50.60;;;21.10;;
5121;SDS011;2563;52.242;7.956;2024-03-06T14:46:39;55.10;;;22.23;;
5121;SDS011;2563;52.242;7.956;2024-03-06T14:49:05;56.93;;;21.90;;
5121;SDS011;2563;52.242;7.956;2024-03-06T14:51:30;52.50;;;21.40;;
5121;SDS011;2563;52.242;7.956;2024-03-06T14:53:56;55.10;;;21.03;;